Terminal Aerodrome Forecast
Issued by NWS

Current Version | Previous Version | Text Only | Print | Product List | Glossary On
Versions: 1 2 3 4 5 6 7 8 9 10 11 12 13
000
FTUS42 KMHX 060536
TAFPGV
TAF
KPGV 060536Z 0606/0706 00000KT P6SM BKN250
     FM060930 00000KT 4SM BR BKN250
     FM061200 VRB03KT P6SM BKN250
     FM061500 14006KT P6SM BKN250
      AMD LTD TO CLD VIS AND WIND=

USA.gov is the U.S. government's official web portal to all federal, state and local government web resources and services.